ADDS METAR Data INFO
IDs: Format: Raw Decoded Include TAF

Data at: 0155 UTC 19 Jul 2018

KJSO 190155Z AUTO 17004KT 10SM CLR 31/22 A2994 RMK AO2 T03080220
KJSO 190135Z AUTO 15003KT 10SM CLR 31/22 A2993 RMK AO2 T03120221
KJSO 190115Z AUTO 00000KT 10SM CLR 31/22 A2994 RMK AO2 T03190224
KJSO 190055Z AUTO 00000KT 10SM CLR 32/22 A2993 RMK AO2 T03280221
KJSO 190035Z AUTO 00000KT 10SM CLR 33/22 A2993 RMK AO2 T03350224
KJSO 190015Z AUTO 00000KT 10SM CLR 34/22 A2993 RMK AO2 T03420222
KJSO 182355Z AUTO 00000KT 10SM CLR 35/21 A2992 RMK AO2 T03470218
KJSO 182335Z AUTO 00000KT 10SM CLR 35/21 A2992 RMK AO2 T03500212
KJSO 182315Z AUTO 00000KT 10SM CLR 35/21 A2993 RMK AO2 T03520216
KJSO 182255Z AUTO 18005KT 10SM CLR 35/21 A2993 RMK AO2 T03540211
KJSO 182235Z AUTO 17003KT 10SM CLR 35/21 A2993 RMK AO2 T03550209
KJSO 182215Z AUTO 16006KT 10SM CLR 35/20 A2994 RMK AO2 T03570206
KJSO 182155Z AUTO 16005KT 10SM CLR 36/20 A2994 RMK AO2 T03590202
KJSO 182135Z AUTO 15003KT 10SM CLR 36/18 A2995 RMK AO2 T03580187
KJSO 182115Z AUTO 00000KT 10SM CLR 35/19 A2996 RMK AO2 T03540192
KJSO 182055Z AUTO 18004KT 10SM CLR 35/21 A2997 RMK AO2 T03550208
KJSO 182035Z AUTO 12004KT 10SM CLR 34/21 A2997 RMK AO2 T03470214
KJSO 182015Z AUTO 15006KT 10SM CLR 34/21 A2998 RMK AO2 T03450219
KJSO 181955Z AUTO 20004KT 10SM CLR 34/21 A2999 RMK AO2 T03410216
KJSO 181935Z AUTO 18006KT 10SM CLR 34/22 A3000 RMK AO2 T03440220
KJSO 181915Z AUTO 16005KT 10SM CLR 34/22 A3000 RMK AO2 T03430225
KJSO 181855Z AUTO 17003KT 10SM CLR 33/22 A3000 RMK AO2 T03390224
KJSO 181835Z AUTO 16003KT 10SM CLR 33/22 A3001 RMK AO2 T03350220
KJSO 181815Z AUTO 20005KT 10SM CLR 33/22 A3002 RMK AO2 T03330220
KJSO 181755Z AUTO 21003KT 10SM CLR 33/22 A3002 RMK AO2 T03330226
KJSO 181735Z AUTO 18003KT 10SM CLR 32/22 A3003 RMK AO2 T03250227
KJSO 181715Z AUTO 18003KT 10SM CLR 32/22 A3003 RMK AO2 T03210230
KJSO 181655Z AUTO 19005KT 10SM CLR 31/22 A3003 RMK AO2 T03170228
KJSO 181635Z AUTO 00000KT 10SM CLR 31/23 A3003 RMK AO2 T03110233
KJSO 181615Z AUTO 21003KT 10SM CLR 31/21 A3004 RMK AO2 T03110219
KJSO 181555Z AUTO 24005KT 10SM CLR 30/23 A3004 RMK AO2 T03030231
KJSO 181535Z AUTO 23003KT 10SM CLR 29/22 A3003 RMK AO2 T02950224
KJSO 181515Z AUTO 22005KT 10SM CLR 28/22 A3003 RMK AO2 T02850229
KJSO 181455Z AUTO 23005KT 10SM CLR 27/22 A3003 RMK AO2 T02770230
KJSO 181435Z AUTO 21003KT 10SM CLR 27/22 A3004 RMK AO2 T02720230
KJSO 181415Z AUTO 22005KT 10SM CLR 26/22 A3004 RMK AO2 T02620227
KJSO 181355Z AUTO 22005KT 10SM SCT100 25/22 A3004 RMK AO2 T02560225
KJSO 181335Z AUTO 22006KT 10SM CLR 26/22 A3004 RMK AO2 LTG DSNT N T02580223
KJSO 181315Z AUTO 22004KT 10SM CLR 25/22 A3004 RMK AO2 T02500221
KJSO 181255Z AUTO 22004KT 10SM CLR 24/22 A3004 RMK AO2 T02460220
KJSO 181235Z AUTO 21004KT 10SM CLR 24/21 A3004 RMK AO2 T02450219
KJSO 181215Z AUTO 21004KT 10SM CLR 24/21 A3003 RMK AO2 T02430218
KJSO 181155Z AUTO 22004KT 10SM CLR 24/21 A3003 RMK AO2 T02450217
KJSO 181135Z AUTO 21004KT 10SM CLR 24/22 A3003 RMK AO2 T02430220
KJSO 181115Z AUTO 21004KT 10SM CLR 24/22 A3003 RMK AO2 T02430220
KJSO 181055Z AUTO 21004KT 10SM CLR 24/22 A3002 RMK AO2 T02450221
KJSO 181035Z AUTO 22004KT 10SM CLR 24/22 A3002 RMK AO2 T02460222
KJSO 181015Z AUTO 20004KT 10SM CLR 25/22 A3001 RMK AO2 T02470222
KJSO 180955Z AUTO 20004KT 10SM CLR 25/22 A3001 RMK AO2 T02480223
KJSO 180935Z AUTO 20003KT 10SM CLR 25/22 A3001 RMK AO2 T02500222
KJSO 180915Z AUTO 20003KT 10SM CLR 25/22 A3001 RMK AO2 T02500222
KJSO 180855Z AUTO 20004KT 10SM CLR 25/22 A3000 RMK AO2 T02510220
KJSO 180835Z AUTO 20004KT 10SM CLR 25/22 A3001 RMK AO2 T02530220
KJSO 180815Z AUTO 20003KT 10SM CLR 25/21 A3001 RMK AO2 T02560218
KJSO 180755Z AUTO 21003KT 10SM CLR 26/21 A3000 RMK AO2 T02600216
KJSO 180735Z AUTO 20005KT 10SM CLR 26/21 A3001 RMK AO2 T02650215
KJSO 180715Z AUTO 20005KT 10SM CLR 26/21 A3001 RMK AO2 T02670215
KJSO 180655Z AUTO 20003KT 10SM CLR 26/21 A3001 RMK AO2 T02660212
KJSO 180635Z AUTO 20004KT 10SM CLR 26/21 A3001 RMK AO2 T02660212
KJSO 180615Z AUTO 20003KT 10SM CLR 26/21 A3001 RMK AO2 T02680211
KJSO 180555Z AUTO 20005KT 10SM CLR 27/21 A3001 RMK AO2 T02710211
KJSO 180535Z AUTO 19004KT 10SM CLR 27/21 A3002 RMK AO2 T02730210
KJSO 180515Z AUTO 19004KT 10SM CLR 27/20 A3002 RMK AO2 T02750206
KJSO 180455Z AUTO 19005KT 10SM CLR 27/20 A3002 RMK AO2 T02800204
KJSO 180435Z AUTO 19006KT 10SM CLR 28/20 A3003 RMK AO2 T02830200
KJSO 180415Z AUTO 18005KT 10SM CLR 28/20 A3003 RMK AO2 T02870197
KJSO 180355Z AUTO 19004KT 10SM CLR 28/19 A3003 RMK AO2 T02900196
KJSO 180335Z AUTO 18003KT 10SM CLR 28/20 A3003 RMK AO2 T02880203
KJSO 180315Z AUTO 19003KT 10SM CLR 29/20 A3002 RMK AO2 T02950205
KJSO 180255Z AUTO 00000KT 10SM CLR 30/20 A3002 RMK AO2 T02970202
KJSO 180235Z AUTO 19003KT 10SM CLR 30/21 A3001 RMK AO2 T03000208
KJSO 180215Z AUTO 19003KT 7SM CLR 30/21 A3001 RMK AO2 T03010212
KJSO 180155Z AUTO 00000KT 7SM CLR 30/21 A3001 RMK AO2 T03030210
KJSO 180135Z AUTO 00000KT 7SM CLR 31/20 A3000 RMK AO2 T03110205
KJSO 180115Z AUTO 17003KT 7SM CLR 31/20 A3000 RMK AO2 T03180200
KJSO 180055Z AUTO 00000KT 7SM CLR 32/19 A3000 RMK AO2 T03280193
KJSO 180035Z AUTO 00000KT 7SM CLR 33/19 A3000 RMK AO2 T03350193
KJSO 180015Z AUTO 00000KT 7SM CLR 33/18 A3000 RMK AO2 T03410189
KJSO 172355Z AUTO 15003KT 7SM CLR 34/17 A3000 RMK AO2 T03450180
KJSO 172335Z AUTO 16005KT 7SM CLR 35/17 A3001 RMK AO2 T03490175
KJSO 172315Z AUTO 18005KT 7SM CLR 35/17 A3001 RMK AO2 T03500173
KJSO 172255Z AUTO 20005KT 7SM CLR 35/18 A3001 RMK AO2 T03490185
KJSO 172235Z AUTO 17007KT 7SM CLR 35/18 A3001 RMK AO2 T03550189
KJSO 172215Z AUTO 21004KT 7SM CLR 35/16 A3002 RMK AO2 T03550169
KJSO 172155Z AUTO 00000KT 7SM CLR 35/17 A3001 RMK AO2 T03520171
KJSO 172135Z AUTO 22003KT 7SM CLR 35/18 A3002 RMK AO2 T03540184
KJSO 172115Z AUTO 26005KT 7SM CLR 35/17 A3002 RMK AO2 T03550170
KJSO 172055Z AUTO 22005KT 7SM CLR 35/18 A3003 RMK AO2 T03500182
KJSO 172035Z AUTO 27005KT 7SM CLR 34/17 A3004 RMK AO2 T03460174
KJSO 172015Z AUTO 25005KT 7SM CLR 34/18 A3005 RMK AO2 T03420186
KJSO 171955Z AUTO 25004KT 7SM CLR 33/18 A3006 RMK AO2 T03350180
KJSO 171935Z AUTO 26005KT 10SM CLR 33/17 A3006 RMK AO2 T03310179
KJSO 171915Z AUTO 26006KT 7SM CLR 33/17 A3007 RMK AO2 T03320176
KJSO 171855Z AUTO 25007KT 7SM CLR 33/17 A3008 RMK AO2 T03320176
KJSO 171835Z AUTO 25006KT 7SM CLR 32/18 A3008 RMK AO2 T03290184
KJSO 171815Z AUTO 26004KT 7SM CLR 32/18 A3009 RMK AO2 T03290188
KJSO 171755Z AUTO 26006KT 10SM CLR 32/18 A3010 RMK AO2 T03260183
KJSO 171735Z AUTO 27008KT 7SM CLR 32/18 A3010 RMK AO2 T03200185
KJSO 171715Z AUTO 23006KT 7SM CLR 31/18 A3011 RMK AO2 T03170183
KJSO 171655Z AUTO 23008G14KT 210V270 7SM CLR 31/18 A3011 RMK AO2 T03150185
KJSO 171635Z AUTO 24007KT 210V270 10SM CLR 31/20 A3011 RMK AO2 T03120198
KJSO 171615Z AUTO 23006KT 7SM CLR 30/20 A3011 RMK AO2 T03000199
KJSO 171535Z AUTO 23009KT 10SM CLR 28/20 A3010 RMK AO2 T02900207
KJSO 171515Z AUTO 24008KT 7SM CLR 28/22 A3010 RMK AO2 T02820221
KJSO 171455Z AUTO 22006KT 10SM CLR 27/22 A3010 RMK AO2 T02760224
KJSO 171435Z AUTO 23008KT 10SM CLR 26/21 A3011 RMK AO2 T02670219
KJSO 171415Z AUTO 24007KT 7SM CLR 26/22 A3011 RMK AO2 T02600221